Tuesday, February 20, 2018, 9:34 AM GMT
Back to Local

CYUL, Montreal / Pierre Elliot Trudeau International Airport, Que

Location: , , Canada Lat: 45.467
Local Time: 9:34 AM GMT ( 9:34 GMT) Lon: -73.75
Time Zone: GMT Elev: 101 ft

Show me the last for .
Show Decoded

2018-02-20 09:00 METAR CYUL 200900Z 01008KT 1 1/2SM -DZ BR BKN002 OVC008 01/01 A3014 RMK SF7SF1
                 SLP210 =
2018-02-20 08:36 METAR CYUL 200836Z 03008KT 1 1/2SM -DZ BR BKN001 OVC006 01/01 A3013 RMK SF6SF2
                 SLP206 =
2018-02-20 08:00 METAR CYUL 200800Z 01005KT 1 1/2SM -DZ BR BKN002 OVC006 01/01 A3014 RMK SF6SF2
                 SLP208 =
2018-02-20 07:40 METAR CYUL 200740Z 01005KT 1 3/4SM -DZ BR BKN006 OVC025 02/01 A3014 RMK SF6SC2
                 SLP209 =
2018-02-20 07:00 METAR CYUL 200700Z 04005KT 2SM -RA BR FEW007 BKN025 01/01 A3013 RMK SF2SC5
                 SLP206 =
2018-02-20 06:45 METAR CYUL 200645Z 04006KT 2SM R06L/5000FT/U -RA BR FEW005 OVC030 02/01 A3013
                 RMK SF2SC6 SLP207 =
2018-02-20 06:00 METAR CYUL 200600Z 34005KT 2SM -RA BR FEW003 OVC007 02/01 A3016 RMK SF2SF6
                 PRESRR SLP216 =
2018-02-20 05:00 METAR CYUL 200500Z 03006KT 2 1/2SM -RA BR SCT004 OVC009 02/02 A3014 RMK SF3SF5
                 SLP208 =
2018-02-20 04:00 METAR CYUL 200400Z 04004KT 2 1/2SM -RA BR BKN004 OVC008 02/01 A3014 RMK SF6SF2
                 PRESFR SLP209 =
2018-02-20 03:31 METAR CYUL 200331Z 11004KT 3SM -DZ BR FEW004 OVC008 02/02 A3014 RMK SF2SF6
                 SLP210 =
2018-02-20 03:00 METAR CYUL 200300Z 11004KT 4SM -DZ BR BKN007 OVC012 02/02 A3014 RMK SF5SF3
                 SLP208 =
2018-02-20 02:52 METAR CYUL 200252Z 10004KT 2 1/2SM -RA BR SCT007 OVC018 02/01 A3013 RMK SF3SC5
                 SLP208 =
2018-02-20 02:46 METAR CYUL 200246Z 11005KT 4SM -RA BR BKN009 BKN013 OVC018 02/01 A3013 RMK
                 SF5SF1SC2 PRESFR SLP207 =
2018-02-20 02:37 METAR CYUL 200237Z 11006KT 5SM -RA BR FEW009 BKN013 OVC020 02/01 A3014 RMK
                 SF1SF4SC3 PRESFR SLP208 =
2018-02-20 02:35 METAR CYUL 200235Z 11005KT 6SM -RA BR FEW008 BKN016 OVC022 02/01 A3014 RMK
                 SF1SF4SC3 SLP210 =
2018-02-20 02:22 METAR CYUL 200222Z 10003KT 5SM -RA BR BKN012 OVC016 02/01 A3015 RMK SF5SC3
                 SLP213 =
2018-02-20 02:05 METAR CYUL 200205Z 10003KT 060V130 6SM -DZ BR BKN012 OVC016 03/01 A3016 RMK
                 SF6SC2 PRESRR SLP215 =
2018-02-20 02:00 METAR CYUL 200200Z VRB02KT 8SM -DZ BKN012 OVC017 03/02 A3016 RMK SF6SC2 PRESRR
                 SLP215 =
2018-02-20 01:48 METAR CYUL 200148Z 08003KT 040V120 8SM -DZ BKN012 OVC020 03/02 A3014 RMK SF5SC3
                 SLP209 =
2018-02-20 01:30 METAR CYUL 200130Z 10002KT 10SM -DZ FEW014 BKN019 OVC024 02/02 A3015 RMK
                 SF1SC6SC2 SF TR SLP212 =
2018-02-20 01:20 METAR CYUL 200120Z 09004KT 10SM -DZ FEW011 SCT016 OVC022 03/02 A3013 RMK
                 SF1SF3SC4 SLP208 =
2018-02-20 01:14 METAR CYUL 200114Z 10003KT 8SM -DZ BR FEW009 BKN013 OVC017 02/02 A3013 RMK
                 SF1SF5SF3 SF TR SLP208 =
2018-02-20 01:09 METAR CYUL 200109Z 10003KT 8SM -DZ SCT012 OVC018 03/02 A3014 RMK SF3SC5 SLP209 =
2018-02-20 01:00 METAR CYUL 200100Z 10003KT 5SM -RA BR FEW009 BKN012 OVC017 03/02 A3014 RMK
                 SF1SF5SC3 SF TR SLP210 =
2018-02-20 00:48 METAR CYUL 200048Z 11004KT 5SM -RA BR FEW009 BKN013 OVC018 02/01 A3014 RMK
                 SF1SF5SC3 SF TR SLP209 =
2018-02-20 00:35 METAR CYUL 200035Z 15004KT 6SM -RA BR BKN012 OVC018 03/01 A3014 RMK SF5SC3
                 SLP211 =
2018-02-20 00:00 METAR CYUL 200000Z 14009KT 15SM -RA SCT017 OVC023 03/01 A3015 RMK SC3SC5 SLP212
                 =
2018-02-19 23:00 METAR CYUL 192300Z 15007KT 15SM -RA OVC032 03/01 A3015 RMK SC8 SLP213 =
2018-02-19 22:00 METAR CYUL 192200Z 19006KT 15SM -RA FEW040 BKN055 OVC090 04/M01 A3014 RMK
                 SC1SC6AC1 SLP210 =
2018-02-19 21:25 METAR CYUL 192125Z 17010KT 15SM -SN FEW030 BKN047 OVC070 05/M02 A3013 RMK
                 SC2SC4AC2 SLP208 =
2018-02-19 21:00 METAR CYUL 192100Z 14008KT 15SM BKN075 BKN110 OVC220 05/M03 A3013 RMK AC6AC1CI1
                 SLP208 =
2018-02-19 20:00 METAR CYUL 192000Z 15006KT 15SM BKN080 OVC240 06/M03 A3015 RMK AC5CI3 SLP212 =
2018-02-19 19:00 METAR CYUL 191900Z 14008KT 30SM FEW190 BKN240 06/M04 A3016 RMK AC1CI6 AC TR
                 SLP215 =
2018-02-19 18:00 METAR CYUL 191800Z 14009KT 30SM BKN250 05/M04 A3016 RMK CI6 SLP218 =
2018-02-19 17:00 METAR CYUL 191700Z 15010KT 30SM FEW180 SCT250 04/M05 A3019 RMK AC1CI4 AC TR
                 SLP228 =
2018-02-19 15:00 METAR CYUL 191500Z 15013KT 30SM BKN250 01/M06 A3023 RMK CI6 SLP241 =
2018-02-19 14:00 METAR CYUL 191400Z 15014G19KT 30SM BKN250 00/M06 A3025 RMK CI6 SLP247 =
2018-02-19 13:00 METAR CYUL 191300Z 15015KT 30SM FEW055 FEW160 BKN250 M01/M06 A3027 RMK SC1AC1CI6
                 SC TR AC TR PRESFR SLP255 =
2018-02-19 12:00 METAR CYUL 191200Z 15012KT 30SM FEW160 FEW220 BKN250 M02/M06 A3029 RMK AC1CI1CI6
                 AC TR SLP261 =
2018-02-19 11:00 METAR CYUL 191100Z 13010KT 15SM FEW150 BKN240 M02/M07 A3030 RMK AC1CI6 SLP265 =
2018-02-19 10:00 METAR CYUL 191000Z 13008KT 15SM BKN250 M03/M07 A3033 RMK CI7 SLP274 =

Support USWX by starting your Amazon purchase here.